الصفحة الرئيسية
METAR-TAF:

METAR-TAF

مطار :

أوخريد, مقدونيا

دائرة عرض: 41-07N, خط طول: 020-48E, ارتفاع: 760 متر

مراقبة الطقس الحالي

تاريخ ووقت الإصدار 14ساعات و 1 دقيقة قبل الساعة 15:00UTC
ريح 12 عقدة من الشمال تتزايد حتى 28 عقدة
درجة الحرارة 8°درجة مئوية
الرطوبة 66%
ضغط 1017 hPa
الرؤية 10 كم أو أكثر
غيوم مفككة على ارتفاع 4000 قدم
غيوم مفككة على ارتفاع 9000 قدم

METAR: LWOH 051500Z 01012G28KT 9999 BKN040 BKN090 08/02 Q1017

زمن: 07:01 (05:01 UTC)

توقعات

تاريخ ووقت الإصدار 2ساعات و 31 دقيقة قبل الساعة 02:30UTC
التوقعات صالحة من06 الساعة 03 UTC إلى 07 الساعة 03 UTC
ريح 10 عقدة من الشمال/الشمال الغربي
الرؤية 10 كم أو أكثر
غيوم مفككة على ارتفاع 6000 قدم
أصبح
من 06 الساعة 10 UTC إلى 06 الساعة 12 UTC
غيوم متفرقة على ارتفاع 4000 قدم
مؤقت
من 06 الساعة 12 UTC إلى 06 الساعة 18 UTC
ريح 15 عقدة من الشمال تتزايد حتى 25 عقدة

TAF: LWOH 060230Z 0603/0703 34010KT 9999 BKN060 BECMG 0610/0612 SCT040 TEMPO 0612/0618 36015G25KT

أرصاد الطقس والتوقعات من أكثر من 4000 مطار (تقارير الطقس للمطار METAR والتنبؤ بالطقس بالمطارTAF).

المحطات المتاحة هي النقط الصفراء والحمراء على الخريطة.

حرك المؤشر فوق النقطة لمعرفة اسم المحطة.

ثم انقر لمعرفة أرصاد وتوقعات الطقس.

لتغيير الخارطة: اضغط على الأزرار الخضراء مع رمز الصليب الأسود للتكبير. على الزر الأخضر مع شرطة للتصغير، أو على الأسهم الخضراء للخرائط المجاورة.


METAR-TAF: